createdAt,value
2017-01-22T00:00:33.144Z,0
2017-01-22T00:01:15.178Z,0
2017-01-22T00:01:56.503Z,0
2017-01-22T00:02:37.638Z,0
2017-01-22T00:03:18.073Z,0
2017-01-22T00:03:58.620Z,0
2017-01-22T00:04:42.001Z,0
2017-01-22T00:05:23.295Z,0
2017-01-22T00:06:06.187Z,0
2017-01-22T00:06:46.654Z,0
2017-01-22T00:07:28.213Z,0
2017-01-22T00:08:08.681Z,0
2017-01-22T00:08:49.243Z,0
2017-01-22T00:09:29.747Z,0
2017-01-22T00:10:10.942Z,0
2017-01-22T00:10:52.995Z,0
2017-01-22T00:13:27.244Z,0
2017-01-22T00:14:16.080Z,0
2017-01-22T00:15:04.716Z,0
2017-01-22T00:15:54.301Z,0
2017-01-22T00:16:42.725Z,0
2017-01-22T00:17:31.979Z,0
2017-01-22T00:18:20.313Z,0
2017-01-22T00:19:09.052Z,0
2017-01-22T00:19:57.592Z,0
2017-01-22T00:20:46.537Z,0
2017-01-22T00:21:34.762Z,0
2017-01-22T00:22:23.281Z,0
2017-01-22T00:23:12.029Z,0
2017-01-22T00:24:00.911Z,0
2017-01-22T00:24:49.639Z,0
2017-01-22T00:25:32.416Z,0
2017-01-22T00:26:14.435Z,0
2017-01-22T00:26:54.908Z,0
2017-01-22T00:27:35.994Z,0
2017-01-22T00:28:17.384Z,0
2017-01-22T00:28:58.517Z,0
2017-01-22T00:29:38.978Z,0
2017-01-22T00:30:19.496Z,0
2017-01-22T00:31:00.639Z,0
2017-01-22T00:31:41.819Z,0
2017-01-22T00:32:23.975Z,0
2017-01-22T00:33:04.394Z,0
2017-01-22T00:33:44.881Z,0
2017-01-22T00:34:26.934Z,0
2017-01-22T00:35:09.144Z,0
2017-01-22T00:35:49.674Z,0
2017-01-22T00:36:30.179Z,0
2017-01-22T00:37:13.470Z,0
2017-01-22T00:37:54.714Z,0
2017-01-22T00:38:35.194Z,0
2017-01-22T00:39:15.701Z,0
2017-01-22T00:39:56.351Z,0
2017-01-22T00:40:36.857Z,0
2017-01-22T00:41:17.910Z,0
2017-01-22T00:41:59.015Z,0
2017-01-22T00:42:40.272Z,0
2017-01-22T00:43:21.688Z,0
2017-01-22T00:44:02.123Z,0
2017-01-22T00:44:42.652Z,0
2017-01-22T00:45:24.122Z,0
2017-01-22T00:46:06.226Z,0
2017-01-22T00:46:48.249Z,0
2017-01-22T00:47:28.673Z,0
2017-01-22T00:48:09.142Z,0
2017-01-22T00:48:49.687Z,0
2017-01-22T00:49:30.081Z,0
2017-01-22T00:50:10.610Z,0
2017-01-22T00:50:51.136Z,0
2017-01-22T00:51:35.397Z,0
2017-01-22T00:52:15.902Z,0
2017-01-22T00:52:56.394Z,0
2017-01-22T00:53:36.828Z,0
2017-01-22T00:54:17.374Z,0
2017-01-22T00:54:57.938Z,0
2017-01-22T00:55:38.438Z,0
2017-01-22T00:56:18.900Z,0
2017-01-22T00:56:59.429Z,0
2017-01-22T00:57:39.964Z,0
2017-01-22T00:58:20.450Z,0
2017-01-22T00:59:00.933Z,0
2017-01-22T00:59:42.300Z,0
2017-01-22T01:00:22.865Z,0
2017-01-22T01:01:03.306Z,0
2017-01-22T01:01:43.912Z,0
2017-01-22T01:02:24.408Z,0
2017-01-22T01:03:04.926Z,0
2017-01-22T01:03:45.405Z,0
2017-01-22T01:04:25.898Z,0
2017-01-22T01:05:06.353Z,0
2017-01-22T01:05:47.653Z,0
2017-01-22T01:06:28.131Z,0
2017-01-22T01:07:08.596Z,0
2017-01-22T01:07:50.410Z,0
2017-01-22T01:08:31.543Z,0
2017-01-22T01:09:11.982Z,0
2017-01-22T01:09:53.135Z,0
2017-01-22T01:10:33.621Z,0
2017-01-22T01:11:15.136Z,0
2017-01-22T01:11:55.631Z,0
2017-01-22T01:12:36.267Z,0
2017-01-22T01:13:17.426Z,0
2017-01-22T01:13:58.766Z,0
2017-01-22T01:14:39.177Z,0
2017-01-22T01:15:19.689Z,0
2017-01-22T01:16:00.741Z,0
2017-01-22T01:16:41.269Z,0
2017-01-22T01:17:21.790Z,0
2017-01-22T01:18:02.893Z,0
2017-01-22T01:18:44.377Z,0
2017-01-22T01:19:24.823Z,0
2017-01-22T01:20:05.953Z,0
2017-01-22T01:20:46.442Z,0
2017-01-22T01:21:26.864Z,0
2017-01-22T01:22:07.350Z,0
2017-01-22T01:22:49.635Z,0
2017-01-22T01:23:31.504Z,0
2017-01-22T01:24:12.006Z,0
2017-01-22T01:24:52.502Z,0
2017-01-22T01:25:34.744Z,0
2017-01-22T01:26:16.424Z,0
2017-01-22T01:26:56.901Z,0
2017-01-22T01:27:37.946Z,0
2017-01-22T01:28:20.415Z,0
2017-01-22T01:29:01.619Z,0
2017-01-22T01:29:42.651Z,0
2017-01-22T01:30:23.233Z,0
2017-01-22T01:31:03.716Z,0
2017-01-22T01:31:45.126Z,0
2017-01-22T01:32:28.146Z,0
2017-01-22T01:33:08.599Z,0
2017-01-22T01:33:49.139Z,0
2017-01-22T01:34:30.369Z,0
2017-01-22T01:35:10.932Z,0
2017-01-22T01:35:51.408Z,0
2017-01-22T01:36:32.620Z,0
2017-01-22T01:37:13.142Z,0
2017-01-22T01:37:53.675Z,0
2017-01-22T01:38:34.827Z,0
2017-01-22T01:39:16.971Z,0
2017-01-22T01:39:58.918Z,0
2017-01-22T01:40:40.279Z,0
2017-01-22T01:41:20.739Z,0
2017-01-22T01:42:02.129Z,0
2017-01-22T01:42:42.625Z,0
2017-01-22T01:43:23.175Z,0
2017-01-22T01:44:04.426Z,0
2017-01-22T01:44:45.534Z,0
2017-01-22T01:45:26.624Z,0
2017-01-22T01:46:07.145Z,0
2017-01-22T01:46:47.643Z,0
2017-01-22T01:47:28.145Z,0
2017-01-22T01:48:08.715Z,0
2017-01-22T01:48:49.787Z,0
2017-01-22T01:49:30.298Z,0
2017-01-22T01:50:11.513Z,0
2017-01-22T01:50:53.408Z,0
2017-01-22T01:51:34.018Z,0
2017-01-22T01:52:14.461Z,0
2017-01-22T01:52:54.941Z,0
2017-01-22T01:53:35.418Z,0
2017-01-22T01:54:16.662Z,0
2017-01-22T01:54:58.994Z,0
2017-01-22T01:55:39.515Z,0
2017-01-22T01:56:20.544Z,0
2017-01-22T01:57:01.630Z,0
2017-01-22T01:57:42.911Z,0
2017-01-22T01:58:26.424Z,0
2017-01-22T01:59:06.949Z,0
2017-01-22T01:59:51.217Z,0
2017-01-22T02:00:32.207Z,0
2017-01-22T02:01:12.719Z,0
2017-01-22T02:01:54.679Z,0
2017-01-22T02:02:35.159Z,0
2017-01-22T02:03:16.306Z,0
2017-01-22T02:03:57.512Z,0
2017-01-22T02:04:38.510Z,0
2017-01-22T02:05:20.037Z,0
2017-01-22T02:06:01.127Z,0
2017-01-22T02:06:43.240Z,0
2017-01-22T02:07:24.271Z,0
2017-01-22T02:08:05.425Z,0
2017-01-22T02:08:46.623Z,0
2017-01-22T02:09:27.139Z,0
2017-01-22T02:10:09.332Z,0
2017-01-22T02:10:49.837Z,0
2017-01-22T02:11:30.935Z,0
2017-01-22T02:12:11.458Z,0
2017-01-22T02:12:51.964Z,0
2017-01-22T02:13:33.299Z,0
2017-01-22T02:14:14.737Z,0
2017-01-22T02:14:55.211Z,0
2017-01-22T02:15:35.732Z,0
2017-01-22T02:16:16.248Z,0
2017-01-22T02:16:57.632Z,0
2017-01-22T02:17:39.013Z,0
2017-01-22T02:18:21.913Z,0
2017-01-22T02:19:04.320Z,0
2017-01-22T02:19:45.688Z,0
2017-01-22T02:20:26.205Z,0
2017-01-22T02:21:06.686Z,0
2017-01-22T02:21:47.923Z,0
2017-01-22T02:22:28.945Z,0
2017-01-22T02:23:09.565Z,0
2017-01-22T02:23:50.098Z,0
2017-01-22T02:24:30.649Z,0
2017-01-22T02:25:12.644Z,0
2017-01-22T02:25:53.154Z,0
2017-01-22T02:26:33.623Z,0
2017-01-22T02:27:14.129Z,0
2017-01-22T02:27:54.654Z,0
2017-01-22T02:28:37.485Z,0
2017-01-22T02:29:17.984Z,0
2017-01-22T02:29:58.478Z,0
2017-01-22T02:30:38.942Z,0
2017-01-22T02:31:21.104Z,0
2017-01-22T02:32:01.612Z,0
2017-01-22T02:32:42.077Z,0
2017-01-22T02:33:23.455Z,0
2017-01-22T02:34:03.916Z,0
2017-01-22T02:34:45.189Z,0
2017-01-22T02:35:29.406Z,0
2017-01-22T02:36:11.517Z,0
2017-01-22T02:36:53.639Z,0
2017-01-22T02:37:34.679Z,0
2017-01-22T02:38:15.810Z,0
2017-01-22T02:38:56.346Z,0
2017-01-22T02:39:36.785Z,0
2017-01-22T02:40:17.347Z,0
2017-01-22T02:40:58.671Z,0
2017-01-22T02:41:39.100Z,0
2017-01-22T02:42:20.362Z,0
2017-01-22T02:43:01.704Z,0
2017-01-22T02:43:42.782Z,0
2017-01-22T02:44:24.057Z,0
2017-01-22T02:45:06.593Z,0
2017-01-22T02:45:47.060Z,0
2017-01-22T02:46:27.570Z,0
2017-01-22T02:47:10.418Z,0
2017-01-22T02:47:51.793Z,0
2017-01-22T02:48:33.946Z,0
2017-01-22T02:49:14.439Z,0
2017-01-22T02:49:54.916Z,0
2017-01-22T02:50:36.141Z,0
2017-01-22T02:51:17.233Z,0
2017-01-22T02:51:57.655Z,0
2017-01-22T02:52:39.055Z,0
2017-01-22T02:53:19.528Z,0
2017-01-22T02:54:04.478Z,0
2017-01-22T02:54:46.910Z,0
2017-01-22T02:55:27.400Z,0
2017-01-22T02:56:08.625Z,0
2017-01-22T02:56:50.453Z,0
2017-01-22T02:57:30.971Z,0
2017-01-22T02:58:14.940Z,0
2017-01-22T02:58:56.187Z,0
2017-01-22T02:59:37.622Z,0
2017-01-22T03:00:18.133Z,0
2017-01-22T03:00:58.593Z,0
2017-01-22T03:01:39.067Z,0
2017-01-22T03:02:20.320Z,0
2017-01-22T03:03:00.748Z,0
2017-01-22T03:03:43.819Z,0
2017-01-22T03:04:25.914Z,0
2017-01-22T03:05:07.247Z,0
2017-01-22T03:05:47.788Z,0
2017-01-22T03:06:29.231Z,0
2017-01-22T03:07:10.432Z,0
2017-01-22T03:07:51.005Z,0
2017-01-22T03:08:32.133Z,0
2017-01-22T03:09:12.639Z,0
2017-01-22T03:09:56.011Z,0
2017-01-22T03:10:36.492Z,0
2017-01-22T03:11:16.975Z,0
2017-01-22T03:11:58.958Z,0
2017-01-22T03:12:39.427Z,0
2017-01-22T03:13:19.923Z,0
2017-01-22T03:14:00.400Z,0
2017-01-22T03:14:40.911Z,0
2017-01-22T03:15:21.345Z,0
2017-01-22T03:16:01.904Z,0
2017-01-22T03:16:43.925Z,0
2017-01-22T03:17:24.556Z,0
2017-01-22T03:18:05.711Z,0
2017-01-22T03:18:48.195Z,0
2017-01-22T03:19:29.302Z,0
2017-01-22T03:20:09.768Z,0
2017-01-22T03:20:50.298Z,0
2017-01-22T03:21:31.324Z,0
2017-01-22T03:22:13.417Z,0
2017-01-22T03:22:54.795Z,0
2017-01-22T03:23:38.027Z,0
2017-01-22T03:24:19.121Z,0
2017-01-22T03:25:00.473Z,0
2017-01-22T03:25:42.460Z,0
2017-01-22T03:26:22.873Z,0
2017-01-22T03:27:03.957Z,0
2017-01-22T03:27:44.967Z,0
2017-01-22T03:28:27.900Z,0
2017-01-22T03:29:09.008Z,0
2017-01-22T03:29:49.475Z,0
2017-01-22T03:30:32.877Z,0
2017-01-22T03:33:00.170Z,0
2017-01-22T03:33:49.362Z,0
2017-01-22T03:34:38.262Z,0
2017-01-22T03:35:26.541Z,0
2017-01-22T03:36:15.593Z,0
2017-01-22T03:37:04.077Z,0
2017-01-22T03:37:52.578Z,0
2017-01-22T03:38:41.731Z,0
2017-01-22T03:39:30.462Z,0
2017-01-22T03:40:18.786Z,0
2017-01-22T03:41:07.689Z,0
2017-01-22T03:41:56.800Z,0
2017-01-22T03:42:45.107Z,0
2017-01-22T03:43:33.902Z,0
2017-01-22T03:44:22.731Z,0
2017-01-22T03:45:11.356Z,0
2017-01-22T03:45:59.671Z,0
2017-01-22T03:46:48.499Z,0
2017-01-22T03:47:37.172Z,0
2017-01-22T03:48:25.942Z,0
2017-01-22T03:49:14.691Z,0
2017-01-22T03:50:03.303Z,0
2017-01-22T03:50:52.523Z,0
2017-01-22T03:51:41.209Z,0
2017-01-22T03:52:29.882Z,0
2017-01-22T03:53:18.521Z,0
2017-01-22T03:54:07.491Z,0
2017-01-22T03:54:56.212Z,0
2017-01-22T03:55:44.842Z,0
2017-01-22T03:56:33.446Z,0
2017-01-22T03:57:22.595Z,0
2017-01-22T03:58:10.948Z,0
2017-01-22T03:58:59.663Z,0
2017-01-22T03:59:48.769Z,0
2017-01-22T04:00:36.934Z,0
2017-01-22T04:01:25.521Z,0
2017-01-22T04:02:14.947Z,0
2017-01-22T04:02:56.066Z,0
2017-01-22T04:03:36.539Z,0
2017-01-22T04:04:17.047Z,0
2017-01-22T04:04:59.059Z,0
2017-01-22T04:05:39.530Z,0
2017-01-22T04:06:20.998Z,0
2017-01-22T04:07:01.505Z,0
2017-01-22T04:07:42.020Z,0
2017-01-22T04:08:22.533Z,0
2017-01-22T04:09:04.596Z,0
2017-01-22T04:09:45.627Z,0
2017-01-22T04:10:27.039Z,0
2017-01-22T04:11:07.572Z,0
2017-01-22T04:11:48.944Z,0
2017-01-22T04:12:29.472Z,0
2017-01-22T04:13:10.672Z,0
2017-01-22T04:13:51.780Z,0
2017-01-22T04:14:32.898Z,0
2017-01-22T04:15:13.441Z,0
2017-01-22T04:15:54.398Z,0
2017-01-22T04:16:35.659Z,0
2017-01-22T04:17:16.201Z,0
2017-01-22T04:17:56.729Z,0
2017-01-22T04:18:37.183Z,0
2017-01-22T04:19:17.683Z,0
2017-01-22T04:19:59.106Z,0
2017-01-22T04:20:40.273Z,0
2017-01-22T04:21:20.807Z,0
2017-01-22T04:22:01.916Z,0
2017-01-22T04:22:42.426Z,0
2017-01-22T04:23:24.550Z,0
2017-01-22T04:24:05.054Z,0
2017-01-22T04:24:45.518Z,0
2017-01-22T04:25:26.739Z,0
2017-01-22T04:26:07.888Z,0
2017-01-22T04:26:49.621Z,0
2017-01-22T04:27:30.956Z,0
2017-01-22T04:28:11.396Z,0
2017-01-22T04:28:51.908Z,0
2017-01-22T04:29:32.463Z,0
2017-01-22T04:30:13.662Z,0
2017-01-22T04:30:54.363Z,0
2017-01-22T04:31:34.834Z,0
2017-01-22T04:32:17.061Z,0
2017-01-22T04:32:57.543Z,0
2017-01-22T04:33:38.012Z,0
2017-01-22T04:34:20.484Z,0
2017-01-22T04:35:00.931Z,0
2017-01-22T04:35:41.417Z,0
2017-01-22T04:36:21.863Z,0
2017-01-22T04:37:02.395Z,0
2017-01-22T04:37:44.449Z,0
2017-01-22T04:38:24.419Z,0
2017-01-22T04:39:05.619Z,0
2017-01-22T04:39:46.130Z,0
2017-01-22T04:40:27.528Z,0
2017-01-22T04:41:08.002Z,0
2017-01-22T04:41:49.271Z,0
2017-01-22T04:42:29.774Z,0
2017-01-22T04:43:10.253Z,0
2017-01-22T04:43:51.251Z,0
2017-01-22T04:44:31.773Z,0
2017-01-22T04:45:12.836Z,0
2017-01-22T04:45:53.422Z,0
2017-01-22T04:46:34.565Z,0
2017-01-22T04:47:15.062Z,0
2017-01-22T04:47:56.113Z,0
2017-01-22T04:48:37.348Z,0
2017-01-22T04:49:18.589Z,0
2017-01-22T04:50:03.550Z,0
2017-01-22T04:50:45.699Z,0
2017-01-22T04:51:28.551Z,0
2017-01-22T04:52:09.126Z,0
2017-01-22T04:52:50.557Z,0
2017-01-22T04:53:31.033Z,0
2017-01-22T04:54:11.525Z,0
2017-01-22T04:54:52.168Z,0
2017-01-22T04:55:34.033Z,0
2017-01-22T04:56:15.117Z,0
2017-01-22T04:56:55.666Z,0
2017-01-22T04:57:37.549Z,0
2017-01-22T04:58:19.041Z,0
2017-01-22T04:59:00.352Z,0
2017-01-22T04:59:41.463Z,0
2017-01-22T05:00:21.971Z,0
2017-01-22T05:01:04.546Z,0
2017-01-22T05:01:44.993Z,0
2017-01-22T05:02:26.630Z,0
2017-01-22T05:03:07.156Z,0
2017-01-22T05:03:48.400Z,0
2017-01-22T05:04:28.888Z,0
2017-01-22T05:05:09.906Z,0
2017-01-22T05:05:50.410Z,0
2017-01-22T05:06:30.860Z,0
2017-01-22T05:07:12.283Z,0
2017-01-22T05:07:52.723Z,0
2017-01-22T05:08:33.278Z,0
2017-01-22T05:09:13.745Z,0
2017-01-22T05:09:54.250Z,0
2017-01-22T05:10:34.697Z,0
2017-01-22T05:11:15.988Z,0
2017-01-22T05:11:58.045Z,0
2017-01-22T05:12:40.040Z,0
2017-01-22T05:13:21.365Z,0
2017-01-22T05:14:01.825Z,0
2017-01-22T05:14:42.331Z,0
2017-01-22T05:15:22.815Z,0
2017-01-22T05:16:05.760Z,0
2017-01-22T05:16:46.268Z,0
2017-01-22T05:17:28.496Z,0
2017-01-22T05:18:09.588Z,0
2017-01-22T05:18:51.620Z,0
2017-01-22T05:19:32.172Z,0
2017-01-22T05:20:15.063Z,0
2017-01-22T05:20:56.549Z,0
2017-01-22T05:21:37.545Z,0
2017-01-22T05:22:19.545Z,0
2017-01-22T05:23:00.005Z,0
2017-01-22T05:23:40.568Z,0
2017-01-22T05:24:20.990Z,0
2017-01-22T05:25:02.320Z,0
2017-01-22T05:25:44.155Z,0
2017-01-22T05:26:24.629Z,0
2017-01-22T05:27:06.088Z,0
2017-01-22T05:27:46.678Z,0
2017-01-22T05:28:28.861Z,0
2017-01-22T05:29:11.045Z,0
2017-01-22T05:29:52.365Z,0
2017-01-22T05:30:32.812Z,0
2017-01-22T05:31:16.087Z,0
2017-01-22T05:31:59.027Z,0
2017-01-22T05:32:41.037Z,0
2017-01-22T05:33:21.504Z,0
2017-01-22T05:34:02.534Z,0
2017-01-22T05:34:45.566Z,0
2017-01-22T05:35:27.821Z,0
2017-01-22T05:36:09.290Z,0
2017-01-22T05:36:51.473Z,0
2017-01-22T05:37:31.975Z,0
2017-01-22T05:38:12.459Z,0
2017-01-22T05:38:52.910Z,0
2017-01-22T05:39:35.182Z,0
2017-01-22T05:40:16.318Z,0
2017-01-22T05:40:56.749Z,0
2017-01-22T05:41:37.234Z,0
2017-01-22T05:42:20.287Z,0
2017-01-22T05:43:01.586Z,0
2017-01-22T05:43:42.136Z,0
2017-01-22T05:44:22.648Z,0
2017-01-22T05:45:04.657Z,0
2017-01-22T05:45:45.793Z,0
2017-01-22T05:46:26.952Z,0
2017-01-22T05:47:07.512Z,0
2017-01-22T05:47:49.863Z,0
2017-01-22T05:48:31.022Z,0
2017-01-22T05:49:11.592Z,0
2017-01-22T05:49:54.751Z,0
2017-01-22T05:50:35.230Z,0
2017-01-22T05:51:16.450Z,0
2017-01-22T05:51:57.000Z,0
2017-01-22T05:52:37.482Z,0
2017-01-22T05:53:19.687Z,0
2017-01-22T05:54:00.947Z,0
2017-01-22T05:54:43.277Z,0
2017-01-22T05:55:23.798Z,0
2017-01-22T05:56:06.127Z,0
2017-01-22T05:56:46.726Z,0
2017-01-22T05:57:27.223Z,0
2017-01-22T05:58:09.442Z,0
2017-01-22T05:58:49.904Z,0
2017-01-22T05:59:30.405Z,0
2017-01-22T06:00:11.762Z,0
2017-01-22T06:00:52.953Z,0
2017-01-22T06:01:33.423Z,0
2017-01-22T06:02:14.045Z,0
2017-01-22T06:02:54.599Z,0
2017-01-22T06:03:36.676Z,0
2017-01-22T06:04:18.666Z,0
2017-01-22T06:04:59.155Z,0
2017-01-22T06:05:39.699Z,0
2017-01-22T06:06:20.188Z,0
2017-01-22T06:07:02.402Z,0
2017-01-22T06:07:42.874Z,0
2017-01-22T06:08:23.383Z,0
2017-01-22T06:09:04.722Z,0
2017-01-22T06:09:45.144Z,0
2017-01-22T06:10:27.423Z,0
2017-01-22T06:11:07.952Z,0
2017-01-22T06:11:49.237Z,0
2017-01-22T06:12:30.531Z,0
2017-01-22T06:13:11.910Z,0
2017-01-22T06:13:52.884Z,0
2017-01-22T06:14:34.339Z,0
2017-01-22T06:15:14.922Z,0
2017-01-22T06:15:58.541Z,0
2017-01-22T06:16:39.961Z,0
2017-01-22T06:17:21.134Z,0
2017-01-22T06:18:02.359Z,0
2017-01-22T06:18:43.624Z,0
2017-01-22T06:19:24.789Z,0
2017-01-22T06:20:06.343Z,0
2017-01-22T06:20:47.554Z,0
2017-01-22T06:21:28.067Z,0
2017-01-22T06:22:08.547Z,0
2017-01-22T06:22:49.532Z,0
2017-01-22T06:23:31.906Z,0
2017-01-22T06:24:12.396Z,0
2017-01-22T06:24:52.845Z,0
2017-01-22T06:25:33.361Z,0
2017-01-22T06:26:13.914Z,0
2017-01-22T06:26:56.033Z,0
2017-01-22T06:27:36.626Z,0
2017-01-22T06:28:18.121Z,0
2017-01-22T06:28:59.117Z,0
2017-01-22T06:29:40.381Z,0
2017-01-22T06:30:21.629Z,0
2017-01-22T06:31:02.927Z,0
2017-01-22T06:31:44.052Z,0
2017-01-22T06:32:24.536Z,0
2017-01-22T06:33:05.929Z,0
2017-01-22T06:33:46.467Z,0
2017-01-22T06:34:27.532Z,0
2017-01-22T06:35:08.657Z,0
2017-01-22T06:35:49.123Z,0
2017-01-22T06:36:30.574Z,0
2017-01-22T06:37:12.653Z,0
2017-01-22T06:37:53.646Z,0
2017-01-22T06:38:34.884Z,0
2017-01-22T06:39:16.057Z,0
2017-01-22T06:39:57.248Z,0
2017-01-22T06:40:37.762Z,0
2017-01-22T06:41:18.206Z,0
2017-01-22T06:41:58.677Z,0
2017-01-22T06:42:39.735Z,0
2017-01-22T06:43:21.763Z,0
2017-01-22T06:44:03.154Z,0
2017-01-22T06:44:44.517Z,0
2017-01-22T06:45:26.567Z,0
2017-01-22T06:46:08.733Z,0
2017-01-22T06:46:51.539Z,0
2017-01-22T06:47:33.546Z,0
2017-01-22T06:48:14.095Z,0
2017-01-22T06:48:56.152Z,0
2017-01-22T06:49:37.551Z,0
2017-01-22T06:50:18.514Z,0
2017-01-22T06:50:59.968Z,0
2017-01-22T06:51:40.459Z,4
2017-01-22T06:52:21.854Z,4
2017-01-22T06:53:02.919Z,0
2017-01-22T06:53:43.453Z,0
2017-01-22T06:54:24.044Z,0
2017-01-22T06:55:05.237Z,4
2017-01-22T06:55:49.133Z,4
2017-01-22T06:56:29.612Z,0
2017-01-22T06:57:11.059Z,4
2017-01-22T06:57:51.635Z,4
2017-01-22T06:58:33.092Z,4
2017-01-22T06:59:13.603Z,4
2017-01-22T06:59:54.071Z,4
2017-01-22T07:00:34.575Z,4
2017-01-22T07:01:18.654Z,4
2017-01-22T07:01:59.747Z,4
2017-01-22T07:02:41.655Z,8
2017-01-22T07:03:24.610Z,8
2017-01-22T07:04:05.010Z,8
2017-01-22T07:04:46.347Z,12
2017-01-22T07:05:29.626Z,12
2017-01-22T07:06:10.127Z,12
2017-01-22T07:06:51.406Z,12
2017-01-22T07:07:33.476Z,16
2017-01-22T07:08:14.537Z,16
2017-01-22T07:08:55.100Z,16
2017-01-22T07:09:36.444Z,16
2017-01-22T07:10:18.164Z,20
2017-01-22T07:11:00.282Z,20
2017-01-22T07:11:40.724Z,20
2017-01-22T07:12:22.546Z,24
2017-01-22T07:13:03.988Z,24
2017-01-22T07:13:45.442Z,24
2017-01-22T07:14:28.543Z,24
2017-01-22T07:15:11.857Z,28
2017-01-22T07:15:53.585Z,32
2017-01-22T07:16:34.108Z,32
2017-01-22T07:17:17.048Z,32
2017-01-22T07:17:58.604Z,36
2017-01-22T07:18:39.900Z,36
2017-01-22T07:19:22.354Z,36
2017-01-22T07:20:02.870Z,40
2017-01-22T07:20:44.360Z,44
2017-01-22T07:21:25.671Z,48
2017-01-22T07:22:08.640Z,48
2017-01-22T07:22:49.889Z,48
2017-01-22T07:23:31.304Z,52
2017-01-22T07:24:12.594Z,56
2017-01-22T07:24:54.648Z,60
2017-01-22T07:25:35.226Z,64
2017-01-22T07:26:17.108Z,68
2017-01-22T07:26:58.162Z,72
2017-01-22T07:27:39.512Z,72
2017-01-22T07:28:21.042Z,80
2017-01-22T07:29:03.116Z,84
2017-01-22T07:29:44.355Z,88
2017-01-22T07:30:24.899Z,92
2017-01-22T07:31:06.366Z,92
2017-01-22T07:31:46.898Z,96
2017-01-22T07:32:27.353Z,104
2017-01-22T07:33:08.542Z,104
2017-01-22T07:33:49.068Z,108
2017-01-22T07:34:30.258Z,116
2017-01-22T07:35:10.812Z,124
2017-01-22T07:35:52.087Z,128
2017-01-22T07:36:34.171Z,136
2017-01-22T07:37:14.620Z,148
2017-01-22T07:37:55.887Z,156
2017-01-22T07:38:37.331Z,156
2017-01-22T07:39:18.476Z,168
2017-01-22T07:39:59.532Z,180
2017-01-22T07:40:40.103Z,184
2017-01-22T07:41:21.063Z,192
2017-01-22T07:42:01.616Z,208
2017-01-22T07:42:42.058Z,216
2017-01-22T07:43:22.572Z,224
2017-01-22T07:44:03.072Z,224
2017-01-22T07:44:43.594Z,232
2017-01-22T07:45:25.066Z,236
2017-01-22T07:46:05.654Z,236
2017-01-22T07:46:46.219Z,240
2017-01-22T07:47:27.489Z,244
2017-01-22T07:48:08.774Z,264
2017-01-22T07:48:50.887Z,276
2017-01-22T07:49:31.864Z,300
2017-01-22T07:50:15.530Z,316
2017-01-22T07:50:57.944Z,312
2017-01-22T07:51:39.087Z,304
2017-01-22T07:52:20.454Z,296
2017-01-22T07:53:01.616Z,296
2017-01-22T07:53:44.559Z,320
2017-01-22T07:54:25.065Z,340
2017-01-22T07:55:05.560Z,352
2017-01-22T07:55:46.064Z,356
2017-01-22T07:56:31.278Z,380
2017-01-22T07:57:12.349Z,396
2017-01-22T07:57:55.576Z,396
2017-01-22T07:58:37.059Z,404
2017-01-22T07:59:18.140Z,424
2017-01-22T07:59:58.617Z,444
2017-01-22T08:00:39.134Z,444
2017-01-22T08:01:19.652Z,436
2017-01-22T08:02:01.151Z,428
2017-01-22T08:02:42.631Z,416
2017-01-22T08:03:22.997Z,416
2017-01-22T08:04:03.542Z,436
2017-01-22T08:04:47.697Z,448
2017-01-22T08:05:28.157Z,448
2017-01-22T08:06:08.654Z,444
2017-01-22T08:06:49.205Z,452
2017-01-22T08:07:29.651Z,468
2017-01-22T08:08:11.091Z,488
2017-01-22T08:08:51.547Z,512
2017-01-22T08:09:32.093Z,524
2017-01-22T08:10:12.632Z,528
2017-01-22T08:10:53.944Z,540
2017-01-22T08:11:35.282Z,544
2017-01-22T08:12:16.535Z,560
2017-01-22T08:12:58.869Z,584
2017-01-22T08:13:39.314Z,600
2017-01-22T08:14:19.855Z,600
2017-01-22T08:15:01.937Z,604
2017-01-22T08:15:42.927Z,628
2017-01-22T08:16:23.456Z,644
2017-01-22T08:17:03.920Z,632
2017-01-22T08:17:45.056Z,628
2017-01-22T08:18:25.534Z,664
2017-01-22T08:19:08.549Z,716
2017-01-22T08:19:49.030Z,752
2017-01-22T08:20:30.037Z,784
2017-01-22T08:21:11.328Z,780
2017-01-22T08:21:53.615Z,764
2017-01-22T08:22:35.073Z,760
2017-01-22T08:23:16.656Z,788
2017-01-22T08:23:58.946Z,800
2017-01-22T08:24:41.141Z,792
2017-01-22T08:25:22.463Z,804
2017-01-22T08:26:03.483Z,784
2017-01-22T08:26:43.933Z,772
2017-01-22T08:27:25.151Z,824
2017-01-22T08:28:05.621Z,872
2017-01-22T08:28:47.025Z,840
2017-01-22T08:29:28.403Z,832
2017-01-22T08:30:09.745Z,888
2017-01-22T08:30:50.195Z,924
2017-01-22T08:31:30.771Z,936
2017-01-22T08:32:12.862Z,940
2017-01-22T08:32:53.376Z,920
2017-01-22T08:33:34.624Z,904
2017-01-22T08:34:16.040Z,908
2017-01-22T08:34:59.049Z,896
2017-01-22T08:35:39.606Z,884
2017-01-22T08:36:20.652Z,884
2017-01-22T08:37:01.208Z,856
2017-01-22T08:37:43.346Z,876
2017-01-22T08:38:26.267Z,944
2017-01-22T08:39:07.242Z,988
2017-01-22T08:39:49.552Z,1088
2017-01-22T08:40:32.553Z,1148
2017-01-22T08:41:13.159Z,1104
2017-01-22T08:41:55.366Z,1080
2017-01-22T08:42:37.755Z,1108
2017-01-22T08:43:20.012Z,1124
2017-01-22T08:44:15.152Z,1112
2017-01-22T08:44:56.096Z,1088
2017-01-22T08:45:37.172Z,1092
2017-01-22T08:46:19.560Z,1176
2017-01-22T08:47:01.761Z,1200
2017-01-22T08:47:44.766Z,1224
2017-01-22T08:48:26.547Z,1256
2017-01-22T08:49:07.877Z,1388
2017-01-22T08:49:48.405Z,1436
2017-01-22T08:50:28.842Z,1296
2017-01-22T08:51:09.672Z,1208
2017-01-22T08:54:03.472Z,1284
2017-01-22T08:54:49.118Z,1352
2017-01-22T08:55:38.151Z,1408
2017-01-22T08:56:26.554Z,1372
2017-01-22T08:57:14.833Z,1432
2017-01-22T08:58:03.897Z,1544
2017-01-22T08:58:54.033Z,1556
2017-01-22T08:59:44.972Z,1524
2017-01-22T09:00:38.887Z,1552
2017-01-22T09:01:25.068Z,1532
2017-01-22T09:02:14.573Z,1464
2017-01-22T09:03:02.943Z,1508
2017-01-22T09:03:51.521Z,1596
2017-01-22T09:04:40.494Z,1572
2017-01-22T09:05:29.584Z,1612
2017-01-22T09:06:20.222Z,1764
2017-01-22T09:07:08.939Z,1788
2017-01-22T09:07:57.257Z,1676
2017-01-22T09:08:46.314Z,1692
2017-01-22T09:09:35.137Z,1772
2017-01-22T09:10:23.955Z,1748
2017-01-22T09:11:12.312Z,1640
2017-01-22T09:12:01.534Z,1656
2017-01-22T09:12:42.787Z,1796
2017-01-22T09:13:23.249Z,1768
2017-01-22T09:14:04.289Z,1760
2017-01-22T09:14:45.278Z,1800
2017-01-22T09:15:25.722Z,1780
2017-01-22T09:16:07.129Z,1780
2017-01-22T09:16:49.068Z,1796
2017-01-22T09:17:30.095Z,1856
2017-01-22T09:18:11.664Z,1856
2017-01-22T09:18:53.474Z,1848
2017-01-22T09:19:35.685Z,1940
2017-01-22T09:20:16.897Z,1912
2017-01-22T09:20:59.870Z,1812
2017-01-22T09:21:40.578Z,1852
2017-01-22T09:22:25.325Z,1828
2017-01-22T09:23:06.301Z,1824
2017-01-22T09:23:47.586Z,1872
2017-01-22T09:24:29.462Z,1952
2017-01-22T09:25:10.965Z,1908
2017-01-22T09:25:51.553Z,1820
2017-01-22T09:26:31.953Z,1764
2017-01-22T09:27:13.551Z,1672
2017-01-22T09:27:56.181Z,1620
2017-01-22T09:28:37.408Z,1696
2017-01-22T09:29:17.948Z,1748
2017-01-22T09:29:58.540Z,1784
2017-01-22T09:30:39.766Z,1912
2017-01-22T09:31:20.307Z,2016
2017-01-22T09:32:01.650Z,2068
2017-01-22T09:32:42.138Z,2128
2017-01-22T09:33:23.796Z,2176
2017-01-22T09:34:05.986Z,2136
2017-01-22T09:34:48.895Z,2068
2017-01-22T09:35:30.382Z,2084
2017-01-22T09:36:12.658Z,2040
2017-01-22T09:36:53.914Z,1972
2017-01-22T09:37:35.118Z,1980
2017-01-22T09:38:16.438Z,2028
2017-01-22T09:38:58.540Z,2092
2017-01-22T09:39:41.125Z,2128
2017-01-22T09:40:24.217Z,2140
2017-01-22T09:41:04.812Z,2116
2017-01-22T09:41:45.345Z,2156
2017-01-22T09:42:26.700Z,2156
2017-01-22T09:43:09.438Z,2128
2017-01-22T09:43:49.939Z,2144
2017-01-22T09:44:31.392Z,2204
2017-01-22T09:45:13.663Z,2220
2017-01-22T09:45:54.227Z,2212
2017-01-22T09:46:35.213Z,2224
2017-01-22T09:47:16.264Z,2268
2017-01-22T09:47:57.502Z,2280
2017-01-22T09:48:37.924Z,2324
2017-01-22T09:49:18.484Z,2344
2017-01-22T09:49:59.609Z,2280
2017-01-22T09:50:40.092Z,2220
2017-01-22T09:51:21.528Z,2172
2017-01-22T09:52:02.050Z,2224
2017-01-22T09:52:44.156Z,2256
2017-01-22T09:53:27.001Z,2220
2017-01-22T09:54:09.994Z,2200
2017-01-22T09:54:51.966Z,2220
2017-01-22T09:55:32.439Z,2220
2017-01-22T09:56:12.981Z,2256
2017-01-22T09:56:53.499Z,2312
2017-01-22T09:57:35.612Z,2368
2017-01-22T09:58:16.953Z,2396
2017-01-22T09:59:00.186Z,2368
2017-01-22T09:59:40.726Z,2288
2017-01-22T10:00:22.142Z,2264
2017-01-22T10:01:02.723Z,2212
2017-01-22T10:01:44.116Z,2168
2017-01-22T10:02:24.612Z,2224
2017-01-22T10:03:05.048Z,2300
2017-01-22T10:03:45.571Z,2276
2017-01-22T10:04:26.034Z,2248
2017-01-22T10:05:07.125Z,2288
2017-01-22T10:05:49.638Z,2268
2017-01-22T10:06:30.080Z,2252
2017-01-22T10:07:10.611Z,2264
2017-01-22T10:07:51.113Z,2260
2017-01-22T10:08:31.596Z,2248
2017-01-22T10:09:12.122Z,2240